sensor_id;sensor_type;location;lat;lon;timestamp;P1;durP1;ratioP1;P2;durP2;ratioP2
44832;SDS011;30569;51.252;9.830;2023-06-19T00:01:46;6.93;;;4.45;;
44832;SDS011;30569;51.252;9.830;2023-06-19T00:04:12;7.15;;;4.25;;
44832;SDS011;30569;51.252;9.830;2023-06-19T00:06:37;8.98;;;5.28;;
44832;SDS011;30569;51.252;9.830;2023-06-19T00:09:03;7.90;;;4.38;;
44832;SDS011;30569;51.252;9.830;2023-06-19T00:11:28;7.47;;;4.40;;
44832;SDS011;30569;51.252;9.830;2023-06-19T00:13:54;6.93;;;4.40;;
44832;SDS011;30569;51.252;9.830;2023-06-19T00:16:20;6.82;;;4.65;;
44832;SDS011;30569;51.252;9.830;2023-06-19T00:18:46;7.15;;;5.05;;
44832;SDS011;30569;51.252;9.830;2023-06-19T00:21:11;8.05;;;4.53;;
44832;SDS011;30569;51.252;9.830;2023-06-19T00:23:37;11.18;;;5.68;;
44832;SDS011;30569;51.252;9.830;2023-06-19T00:26:03;8.20;;;5.07;;
44832;SDS011;30569;51.252;9.830;2023-06-19T00:28:29;8.73;;;4.85;;
44832;SDS011;30569;51.252;9.830;2023-06-19T00:30:55;8.63;;;4.90;;
44832;SDS011;30569;51.252;9.830;2023-06-19T00:33:20;8.48;;;5.00;;
44832;SDS011;30569;51.252;9.830;2023-06-19T00:35:46;9.25;;;4.82;;
44832;SDS011;30569;51.252;9.830;2023-06-19T00:38:13;7.28;;;4.65;;
44832;SDS011;30569;51.252;9.830;2023-06-19T00:40:39;8.48;;;4.72;;
44832;SDS011;30569;51.252;9.830;2023-06-19T00:43:05;8.25;;;5.00;;
44832;SDS011;30569;51.252;9.830;2023-06-19T00:45:31;8.40;;;4.80;;
44832;SDS011;30569;51.252;9.830;2023-06-19T00:47:57;7.72;;;4.70;;
44832;SDS011;30569;51.252;9.830;2023-06-19T00:50:24;8.25;;;4.85;;
44832;SDS011;30569;51.252;9.830;2023-06-19T00:52:50;8.95;;;4.88;;
44832;SDS011;30569;51.252;9.830;2023-06-19T00:55:16;7.93;;;5.47;;
44832;SDS011;30569;51.252;9.830;2023-06-19T00:57:42;6.75;;;4.40;;
44832;SDS011;30569;51.252;9.830;2023-06-19T01:00:09;6.97;;;4.68;;
44832;SDS011;30569;51.252;9.830;2023-06-19T01:02:37;7.50;;;4.88;;
44832;SDS011;30569;51.252;9.830;2023-06-19T01:05:03;8.80;;;5.10;;
44832;SDS011;30569;51.252;9.830;2023-06-19T01:07:38;8.35;;;5.00;;
44832;SDS011;30569;51.252;9.830;2023-06-19T01:10:21;7.78;;;5.28;;
44832;SDS011;30569;51.252;9.830;2023-06-19T01:12:53;8.18;;;5.35;;
44832;SDS011;30569;51.252;9.830;2023-06-19T01:15:29;8.02;;;5.20;;
44832;SDS011;30569;51.252;9.830;2023-06-19T01:17:55;7.10;;;4.88;;
44832;SDS011;30569;51.252;9.830;2023-06-19T01:20:23;8.43;;;5.13;;
44832;SDS011;30569;51.252;9.830;2023-06-19T01:22:49;8.57;;;4.88;;
44832;SDS011;30569;51.252;9.830;2023-06-19T01:25:14;7.32;;;4.90;;
44832;SDS011;30569;51.252;9.830;2023-06-19T01:27:40;7.97;;;5.00;;
44832;SDS011;30569;51.252;9.830;2023-06-19T01:30:07;7.35;;;4.95;;
44832;SDS011;30569;51.252;9.830;2023-06-19T01:32:49;7.63;;;5.13;;
44832;SDS011;30569;51.252;9.830;2023-06-19T01:35:25;8.38;;;5.10;;
44832;SDS011;30569;51.252;9.830;2023-06-19T01:37:53;9.02;;;5.45;;
44832;SDS011;30569;51.252;9.830;2023-06-19T01:40:20;8.35;;;5.38;;
44832;SDS011;30569;51.252;9.830;2023-06-19T01:42:49;8.40;;;5.57;;
44832;SDS011;30569;51.252;9.830;2023-06-19T01:45:19;10.52;;;5.35;;
44832;SDS011;30569;51.252;9.830;2023-06-19T01:47:45;8.85;;;5.38;;
44832;SDS011;30569;51.252;9.830;2023-06-19T01:50:10;8.50;;;4.93;;
44832;SDS011;30569;51.252;9.830;2023-06-19T01:52:37;9.50;;;5.30;;
44832;SDS011;30569;51.252;9.830;2023-06-19T01:55:04;15.07;;;5.72;;
44832;SDS011;30569;51.252;9.830;2023-06-19T01:57:30;8.68;;;5.30;;
44832;SDS011;30569;51.252;9.830;2023-06-19T01:59:56;7.90;;;5.47;;
44832;SDS011;30569;51.252;9.830;2023-06-19T02:02:22;8.38;;;5.32;;
44832;SDS011;30569;51.252;9.830;2023-06-19T02:04:47;8.27;;;5.22;;
44832;SDS011;30569;51.252;9.830;2023-06-19T02:07:13;9.05;;;5.97;;
44832;SDS011;30569;51.252;9.830;2023-06-19T02:09:38;8.15;;;5.75;;
44832;SDS011;30569;51.252;9.830;2023-06-19T02:12:04;9.40;;;5.30;;
44832;SDS011;30569;51.252;9.830;2023-06-19T02:14:30;8.18;;;5.55;;
44832;SDS011;30569;51.252;9.830;2023-06-19T02:16:56;9.52;;;5.55;;
44832;SDS011;30569;51.252;9.830;2023-06-19T02:19:21;7.88;;;5.38;;
44832;SDS011;30569;51.252;9.830;2023-06-19T02:21:47;9.40;;;5.80;;
44832;SDS011;30569;51.252;9.830;2023-06-19T02:24:12;9.70;;;6.13;;
44832;SDS011;30569;51.252;9.830;2023-06-19T02:26:38;8.63;;;5.60;;
44832;SDS011;30569;51.252;9.830;2023-06-19T02:29:03;9.55;;;5.57;;
44832;SDS011;30569;51.252;9.830;2023-06-19T02:31:29;8.93;;;6.15;;
44832;SDS011;30569;51.252;9.830;2023-06-19T02:33:55;8.23;;;5.38;;
44832;SDS011;30569;51.252;9.830;2023-06-19T02:36:20;7.38;;;5.43;;
44832;SDS011;30569;51.252;9.830;2023-06-19T02:38:46;8.52;;;5.45;;
44832;SDS011;30569;51.252;9.830;2023-06-19T02:41:12;8.70;;;5.63;;
44832;SDS011;30569;51.252;9.830;2023-06-19T02:43:39;8.02;;;5.43;;
44832;SDS011;30569;51.252;9.830;2023-06-19T02:46:05;9.18;;;5.50;;
44832;SDS011;30569;51.252;9.830;2023-06-19T02:48:31;10.32;;;5.65;;
44832;SDS011;30569;51.252;9.830;2023-06-19T02:50:57;9.38;;;5.60;;
44832;SDS011;30569;51.252;9.830;2023-06-19T02:53:22;9.43;;;5.47;;
44832;SDS011;30569;51.252;9.830;2023-06-19T02:55:48;9.00;;;5.47;;
44832;SDS011;30569;51.252;9.830;2023-06-19T02:58:13;7.75;;;5.43;;
44832;SDS011;30569;51.252;9.830;2023-06-19T03:00:39;8.48;;;5.90;;
44832;SDS011;30569;51.252;9.830;2023-06-19T03:03:04;9.27;;;6.30;;
44832;SDS011;30569;51.252;9.830;2023-06-19T03:05:30;8.70;;;5.35;;
44832;SDS011;30569;51.252;9.830;2023-06-19T03:07:56;10.73;;;6.00;;
44832;SDS011;30569;51.252;9.830;2023-06-19T03:10:21;13.98;;;6.38;;
44832;SDS011;30569;51.252;9.830;2023-06-19T03:12:47;13.50;;;5.53;;
44832;SDS011;30569;51.252;9.830;2023-06-19T03:15:13;8.80;;;5.63;;
44832;SDS011;30569;51.252;9.830;2023-06-19T03:17:38;10.68;;;6.05;;
44832;SDS011;30569;51.252;9.830;2023-06-19T03:20:04;9.10;;;5.90;;
44832;SDS011;30569;51.252;9.830;2023-06-19T03:22:30;8.25;;;5.70;;
44832;SDS011;30569;51.252;9.830;2023-06-19T03:24:56;10.02;;;5.70;;
44832;SDS011;30569;51.252;9.830;2023-06-19T03:27:22;9.43;;;6.05;;
44832;SDS011;30569;51.252;9.830;2023-06-19T03:29:49;9.07;;;5.30;;
44832;SDS011;30569;51.252;9.830;2023-06-19T03:32:15;9.27;;;5.70;;
44832;SDS011;30569;51.252;9.830;2023-06-19T03:34:41;8.73;;;5.82;;
44832;SDS011;30569;51.252;9.830;2023-06-19T03:37:07;8.13;;;5.85;;
44832;SDS011;30569;51.252;9.830;2023-06-19T03:39:33;9.38;;;6.18;;
44832;SDS011;30569;51.252;9.830;2023-06-19T03:41:59;9.48;;;5.88;;
44832;SDS011;30569;51.252;9.830;2023-06-19T03:44:24;8.23;;;5.50;;
44832;SDS011;30569;51.252;9.830;2023-06-19T03:46:50;8.85;;;6.18;;
44832;SDS011;30569;51.252;9.830;2023-06-19T03:49:16;9.52;;;6.03;;
44832;SDS011;30569;51.252;9.830;2023-06-19T03:51:42;10.30;;;5.70;;
44832;SDS011;30569;51.252;9.830;2023-06-19T03:54:07;8.75;;;5.82;;
44832;SDS011;30569;51.252;9.830;2023-06-19T03:56:33;8.73;;;6.15;;
44832;SDS011;30569;51.252;9.830;2023-06-19T03:58:58;10.35;;;5.90;;
44832;SDS011;30569;51.252;9.830;2023-06-19T04:01:24;8.75;;;5.40;;
44832;SDS011;30569;51.252;9.830;2023-06-19T04:03:49;8.88;;;6.47;;
44832;SDS011;30569;51.252;9.830;2023-06-19T04:06:15;8.48;;;5.75;;
44832;SDS011;30569;51.252;9.830;2023-06-19T04:08:40;9.35;;;6.55;;
44832;SDS011;30569;51.252;9.830;2023-06-19T04:11:06;9.13;;;6.25;;
44832;SDS011;30569;51.252;9.830;2023-06-19T04:13:32;9.05;;;6.32;;
44832;SDS011;30569;51.252;9.830;2023-06-19T04:15:57;7.68;;;5.80;;
44832;SDS011;30569;51.252;9.830;2023-06-19T04:18:23;10.55;;;6.03;;
44832;SDS011;30569;51.252;9.830;2023-06-19T04:20:48;8.38;;;5.70;;
44832;SDS011;30569;51.252;9.830;2023-06-19T04:23:14;11.10;;;6.38;;
44832;SDS011;30569;51.252;9.830;2023-06-19T04:25:39;9.07;;;5.45;;
44832;SDS011;30569;51.252;9.830;2023-06-19T04:28:05;8.82;;;6.07;;
44832;SDS011;30569;51.252;9.830;2023-06-19T04:30:31;9.13;;;5.82;;
44832;SDS011;30569;51.252;9.830;2023-06-19T04:32:59;9.32;;;5.95;;
44832;SDS011;30569;51.252;9.830;2023-06-19T04:35:25;12.90;;;6.07;;
44832;SDS011;30569;51.252;9.830;2023-06-19T04:37:51;8.55;;;6.13;;
44832;SDS011;30569;51.252;9.830;2023-06-19T04:40:18;9.13;;;6.25;;
44832;SDS011;30569;51.252;9.830;2023-06-19T04:42:43;9.32;;;6.55;;
44832;SDS011;30569;51.252;9.830;2023-06-19T04:45:09;10.55;;;6.72;;
44832;SDS011;30569;51.252;9.830;2023-06-19T04:47:35;10.38;;;6.28;;
44832;SDS011;30569;51.252;9.830;2023-06-19T04:50:00;9.05;;;6.50;;
44832;SDS011;30569;51.252;9.830;2023-06-19T04:52:26;8.77;;;5.72;;
44832;SDS011;30569;51.252;9.830;2023-06-19T04:54:51;8.57;;;6.40;;
44832;SDS011;30569;51.252;9.830;2023-06-19T04:57:17;10.27;;;6.38;;
44832;SDS011;30569;51.252;9.830;2023-06-19T04:59:43;10.27;;;6.55;;
44832;SDS011;30569;51.252;9.830;2023-06-19T05:02:09;9.13;;;6.22;;
44832;SDS011;30569;51.252;9.830;2023-06-19T05:04:35;10.65;;;6.70;;
44832;SDS011;30569;51.252;9.830;2023-06-19T05:07:01;9.93;;;7.10;;
44832;SDS011;30569;51.252;9.830;2023-06-19T05:09:27;8.73;;;5.97;;
44832;SDS011;30569;51.252;9.830;2023-06-19T05:11:53;8.60;;;6.03;;
44832;SDS011;30569;51.252;9.830;2023-06-19T05:14:18;8.20;;;5.82;;
44832;SDS011;30569;51.252;9.830;2023-06-19T05:16:44;8.82;;;6.20;;
44832;SDS011;30569;51.252;9.830;2023-06-19T05:19:10;9.50;;;5.97;;
44832;SDS011;30569;51.252;9.830;2023-06-19T05:21:35;11.02;;;6.45;;
44832;SDS011;30569;51.252;9.830;2023-06-19T05:24:01;9.40;;;6.47;;
44832;SDS011;30569;51.252;9.830;2023-06-19T05:26:27;8.93;;;5.70;;
44832;SDS011;30569;51.252;9.830;2023-06-19T05:28:52;9.25;;;5.97;;
44832;SDS011;30569;51.252;9.830;2023-06-19T05:31:18;9.38;;;6.05;;
44832;SDS011;30569;51.252;9.830;2023-06-19T05:33:44;10.25;;;6.13;;
44832;SDS011;30569;51.252;9.830;2023-06-19T05:36:10;8.57;;;5.88;;
44832;SDS011;30569;51.252;9.830;2023-06-19T05:38:35;8.32;;;5.43;;
44832;SDS011;30569;51.252;9.830;2023-06-19T05:41:01;8.90;;;6.43;;
44832;SDS011;30569;51.252;9.830;2023-06-19T05:43:27;7.78;;;5.63;;
44832;SDS011;30569;51.252;9.830;2023-06-19T05:45:53;10.07;;;6.60;;
44832;SDS011;30569;51.252;9.830;2023-06-19T05:48:21;8.48;;;5.95;;
44832;SDS011;30569;51.252;9.830;2023-06-19T05:50:46;9.07;;;6.15;;
44832;SDS011;30569;51.252;9.830;2023-06-19T05:53:12;8.93;;;6.22;;
44832;SDS011;30569;51.252;9.830;2023-06-19T05:55:38;9.40;;;6.38;;
44832;SDS011;30569;51.252;9.830;2023-06-19T05:58:03;10.43;;;6.53;;
44832;SDS011;30569;51.252;9.830;2023-06-19T06:00:29;9.13;;;6.65;;
44832;SDS011;30569;51.252;9.830;2023-06-19T06:02:58;11.18;;;6.30;;
44832;SDS011;30569;51.252;9.830;2023-06-19T06:05:27;9.82;;;6.13;;
44832;SDS011;30569;51.252;9.830;2023-06-19T06:07:53;8.88;;;6.13;;
44832;SDS011;30569;51.252;9.830;2023-06-19T06:10:20;8.52;;;6.00;;
44832;SDS011;30569;51.252;9.830;2023-06-19T06:12:47;10.25;;;6.30;;
44832;SDS011;30569;51.252;9.830;2023-06-19T06:15:13;8.73;;;6.43;;
44832;SDS011;30569;51.252;9.830;2023-06-19T06:17:38;9.00;;;6.20;;
44832;SDS011;30569;51.252;9.830;2023-06-19T06:20:04;8.25;;;5.93;;
44832;SDS011;30569;51.252;9.830;2023-06-19T06:22:36;11.95;;;6.22;;
44832;SDS011;30569;51.252;9.830;2023-06-19T06:25:02;9.18;;;6.28;;
44832;SDS011;30569;51.252;9.830;2023-06-19T06:27:27;8.75;;;6.25;;
44832;SDS011;30569;51.252;9.830;2023-06-19T06:29:53;7.68;;;5.60;;
44832;SDS011;30569;51.252;9.830;2023-06-19T06:32:18;8.70;;;5.80;;
44832;SDS011;30569;51.252;9.830;2023-06-19T06:34:44;8.63;;;6.30;;
44832;SDS011;30569;51.252;9.830;2023-06-19T06:37:09;8.60;;;5.60;;
44832;SDS011;30569;51.252;9.830;2023-06-19T06:39:35;9.02;;;5.88;;
44832;SDS011;30569;51.252;9.830;2023-06-19T06:42:01;9.45;;;5.97;;
44832;SDS011;30569;51.252;9.830;2023-06-19T06:44:27;9.65;;;5.85;;
44832;SDS011;30569;51.252;9.830;2023-06-19T06:46:52;8.60;;;5.72;;
44832;SDS011;30569;51.252;9.830;2023-06-19T06:49:18;8.32;;;5.60;;
44832;SDS011;30569;51.252;9.830;2023-06-19T06:51:45;7.90;;;5.60;;
44832;SDS011;30569;51.252;9.830;2023-06-19T06:54:10;10.02;;;6.10;;
44832;SDS011;30569;51.252;9.830;2023-06-19T06:56:36;9.05;;;5.43;;
44832;SDS011;30569;51.252;9.830;2023-06-19T06:59:01;8.88;;;6.00;;
44832;SDS011;30569;51.252;9.830;2023-06-19T07:01:27;8.55;;;5.63;;
44832;SDS011;30569;51.252;9.830;2023-06-19T07:03:52;8.85;;;6.15;;
44832;SDS011;30569;51.252;9.830;2023-06-19T07:06:18;8.50;;;5.85;;
44832;SDS011;30569;51.252;9.830;2023-06-19T07:08:44;9.75;;;5.70;;
44832;SDS011;30569;51.252;9.830;2023-06-19T07:11:12;10.45;;;5.50;;
44832;SDS011;30569;51.252;9.830;2023-06-19T07:13:38;8.95;;;5.55;;
44832;SDS011;30569;51.252;9.830;2023-06-19T07:16:04;9.15;;;5.60;;
44832;SDS011;30569;51.252;9.830;2023-06-19T07:18:30;9.20;;;5.65;;
44832;SDS011;30569;51.252;9.830;2023-06-19T07:20:56;11.57;;;5.68;;
44832;SDS011;30569;51.252;9.830;2023-06-19T07:23:21;7.00;;;5.15;;
44832;SDS011;30569;51.252;9.830;2023-06-19T07:25:47;9.43;;;6.05;;
44832;SDS011;30569;51.252;9.830;2023-06-19T07:28:13;11.60;;;5.95;;
44832;SDS011;30569;51.252;9.830;2023-06-19T07:30:39;8.57;;;5.45;;
44832;SDS011;30569;51.252;9.830;2023-06-19T07:33:04;8.65;;;5.75;;
44832;SDS011;30569;51.252;9.830;2023-06-19T07:35:30;7.68;;;5.40;;
44832;SDS011;30569;51.252;9.830;2023-06-19T07:37:55;7.82;;;5.32;;
44832;SDS011;30569;51.252;9.830;2023-06-19T07:40:21;7.95;;;4.97;;
44832;SDS011;30569;51.252;9.830;2023-06-19T07:42:46;7.05;;;4.50;;
44832;SDS011;30569;51.252;9.830;2023-06-19T07:45:12;7.00;;;4.43;;
44832;SDS011;30569;51.252;9.830;2023-06-19T07:47:38;7.05;;;4.60;;
44832;SDS011;30569;51.252;9.830;2023-06-19T07:50:04;11.63;;;4.25;;
44832;SDS011;30569;51.252;9.830;2023-06-19T07:52:30;6.10;;;3.97;;
44832;SDS011;30569;51.252;9.830;2023-06-19T07:54:56;7.22;;;4.57;;
44832;SDS011;30569;51.252;9.830;2023-06-19T07:57:23;6.30;;;4.05;;
44832;SDS011;30569;51.252;9.830;2023-06-19T07:59:50;7.50;;;4.70;;
44832;SDS011;30569;51.252;9.830;2023-06-19T08:02:16;5.85;;;3.67;;
44832;SDS011;30569;51.252;9.830;2023-06-19T08:04:42;5.82;;;3.90;;
44832;SDS011;30569;51.252;9.830;2023-06-19T08:07:08;6.35;;;3.80;;
44832;SDS011;30569;51.252;9.830;2023-06-19T08:09:33;6.07;;;3.63;;
44832;SDS011;30569;51.252;9.830;2023-06-19T08:11:59;7.10;;;4.32;;
44832;SDS011;30569;51.252;9.830;2023-06-19T08:14:25;7.43;;;4.07;;
44832;SDS011;30569;51.252;9.830;2023-06-19T08:16:50;6.22;;;4.28;;
44832;SDS011;30569;51.252;9.830;2023-06-19T08:19:16;5.80;;;3.65;;
44832;SDS011;30569;51.252;9.830;2023-06-19T08:21:41;6.82;;;4.13;;
44832;SDS011;30569;51.252;9.830;2023-06-19T08:24:07;6.22;;;4.07;;
44832;SDS011;30569;51.252;9.830;2023-06-19T08:26:32;9.38;;;3.40;;
44832;SDS011;30569;51.252;9.830;2023-06-19T08:28:58;6.18;;;3.90;;
44832;SDS011;30569;51.252;9.830;2023-06-19T08:31:23;7.65;;;3.60;;
44832;SDS011;30569;51.252;9.830;2023-06-19T08:33:55;5.40;;;3.53;;
44832;SDS011;30569;51.252;9.830;2023-06-19T08:36:21;5.60;;;3.47;;
44832;SDS011;30569;51.252;9.830;2023-06-19T08:38:47;6.05;;;3.75;;
44832;SDS011;30569;51.252;9.830;2023-06-19T08:41:14;6.05;;;3.28;;
44832;SDS011;30569;51.252;9.830;2023-06-19T08:43:46;6.78;;;3.50;;
44832;SDS011;30569;51.252;9.830;2023-06-19T08:46:16;5.70;;;3.78;;
44832;SDS011;30569;51.252;9.830;2023-06-19T08:48:43;6.18;;;3.50;;
44832;SDS011;30569;51.252;9.830;2023-06-19T08:51:09;6.20;;;4.10;;
44832;SDS011;30569;51.252;9.830;2023-06-19T08:53:36;5.28;;;3.53;;
44832;SDS011;30569;51.252;9.830;2023-06-19T08:56:09;6.07;;;3.35;;
44832;SDS011;30569;51.252;9.830;2023-06-19T08:58:35;6.22;;;3.50;;
44832;SDS011;30569;51.252;9.830;2023-06-19T09:01:01;5.28;;;3.38;;
44832;SDS011;30569;51.252;9.830;2023-06-19T09:03:27;5.25;;;3.40;;
44832;SDS011;30569;51.252;9.830;2023-06-19T09:05:52;8.23;;;3.70;;
44832;SDS011;30569;51.252;9.830;2023-06-19T09:08:21;6.05;;;3.72;;
44832;SDS011;30569;51.252;9.830;2023-06-19T09:10:57;5.45;;;3.50;;
44832;SDS011;30569;51.252;9.830;2023-06-19T09:13:24;7.28;;;3.70;;
44832;SDS011;30569;51.252;9.830;2023-06-19T09:15:56;6.05;;;3.88;;
44832;SDS011;30569;51.252;9.830;2023-06-19T09:21:17;6.13;;;3.85;;
44832;SDS011;30569;51.252;9.830;2023-06-19T09:23:47;5.82;;;3.75;;
44832;SDS011;30569;51.252;9.830;2023-06-19T09:26:16;5.97;;;3.90;;
44832;SDS011;30569;51.252;9.830;2023-06-19T09:28:44;5.60;;;3.60;;
44832;SDS011;30569;51.252;9.830;2023-06-19T09:31:11;6.03;;;3.47;;
44832;SDS011;30569;51.252;9.830;2023-06-19T09:33:38;6.40;;;4.05;;
44832;SDS011;30569;51.252;9.830;2023-06-19T09:36:05;7.57;;;4.13;;
44832;SDS011;30569;51.252;9.830;2023-06-19T09:38:38;5.72;;;4.10;;
44832;SDS011;30569;51.252;9.830;2023-06-19T09:41:05;7.25;;;4.30;;
44832;SDS011;30569;51.252;9.830;2023-06-19T09:43:36;6.63;;;4.38;;
44832;SDS011;30569;51.252;9.830;2023-06-19T09:46:03;7.20;;;4.20;;
44832;SDS011;30569;51.252;9.830;2023-06-19T09:48:30;6.50;;;4.13;;
44832;SDS011;30569;51.252;9.830;2023-06-19T09:51:10;8.75;;;4.10;;
44832;SDS011;30569;51.252;9.830;2023-06-19T09:53:51;7.30;;;4.43;;
44832;SDS011;30569;51.252;9.830;2023-06-19T09:56:16;6.57;;;4.28;;
44832;SDS011;30569;51.252;9.830;2023-06-19T09:58:46;6.82;;;4.55;;
44832;SDS011;30569;51.252;9.830;2023-06-19T10:01:14;7.32;;;4.72;;
44832;SDS011;30569;51.252;9.830;2023-06-19T10:03:43;6.63;;;4.78;;
44832;SDS011;30569;51.252;9.830;2023-06-19T10:06:13;8.45;;;4.50;;
44832;SDS011;30569;51.252;9.830;2023-06-19T10:08:44;7.60;;;5.00;;
44832;SDS011;30569;51.252;9.830;2023-06-19T10:11:10;7.45;;;4.70;;
44832;SDS011;30569;51.252;9.830;2023-06-19T10:13:37;6.85;;;4.50;;
44832;SDS011;30569;51.252;9.830;2023-06-19T10:16:05;8.23;;;4.30;;
44832;SDS011;30569;51.252;9.830;2023-06-19T10:18:32;6.05;;;4.53;;
44832;SDS011;30569;51.252;9.830;2023-06-19T10:21:15;9.15;;;4.80;;
44832;SDS011;30569;51.252;9.830;2023-06-19T10:23:42;9.60;;;4.85;;
44832;SDS011;30569;51.252;9.830;2023-06-19T10:26:07;7.13;;;4.63;;
44832;SDS011;30569;51.252;9.830;2023-06-19T10:28:33;6.60;;;4.38;;
44832;SDS011;30569;51.252;9.830;2023-06-19T10:31:00;6.15;;;4.55;;
44832;SDS011;30569;51.252;9.830;2023-06-19T10:33:31;7.13;;;4.70;;
44832;SDS011;30569;51.252;9.830;2023-06-19T10:35:58;6.45;;;4.55;;
44832;SDS011;30569;51.252;9.830;2023-06-19T10:38:27;8.35;;;4.22;;
44832;SDS011;30569;51.252;9.830;2023-06-19T10:40:53;6.13;;;4.40;;
44832;SDS011;30569;51.252;9.830;2023-06-19T10:43:19;8.00;;;4.82;;
44832;SDS011;30569;51.252;9.830;2023-06-19T10:45:47;7.10;;;4.30;;
44832;SDS011;30569;51.252;9.830;2023-06-19T10:48:18;6.75;;;4.43;;
44832;SDS011;30569;51.252;9.830;2023-06-19T10:50:52;7.88;;;4.80;;
44832;SDS011;30569;51.252;9.830;2023-06-19T10:55:57;5.80;;;4.30;;
44832;SDS011;30569;51.252;9.830;2023-06-19T10:58:24;6.65;;;4.50;;
44832;SDS011;30569;51.252;9.830;2023-06-19T11:00:50;6.85;;;4.13;;
44832;SDS011;30569;51.252;9.830;2023-06-19T11:03:16;7.63;;;4.45;;
44832;SDS011;30569;51.252;9.830;2023-06-19T11:05:45;6.40;;;4.57;;
44832;SDS011;30569;51.252;9.830;2023-06-19T11:08:16;22.98;;;4.93;;
44832;SDS011;30569;51.252;9.830;2023-06-19T11:10:46;6.68;;;4.43;;
44832;SDS011;30569;51.252;9.830;2023-06-19T11:13:19;5.93;;;4.20;;
44832;SDS011;30569;51.252;9.830;2023-06-19T11:18:14;6.07;;;3.85;;
44832;SDS011;30569;51.252;9.830;2023-06-19T11:20:50;7.13;;;4.05;;
44832;SDS011;30569;51.252;9.830;2023-06-19T11:23:24;6.82;;;4.88;;
44832;SDS011;30569;51.252;9.830;2023-06-19T11:26:02;5.93;;;3.95;;
44832;SDS011;30569;51.252;9.830;2023-06-19T11:28:29;7.35;;;4.22;;
44832;SDS011;30569;51.252;9.830;2023-06-19T11:31:02;6.07;;;4.03;;
44832;SDS011;30569;51.252;9.830;2023-06-19T11:35:58;8.00;;;4.10;;
44832;SDS011;30569;51.252;9.830;2023-06-19T11:38:26;5.50;;;4.10;;
44832;SDS011;30569;51.252;9.830;2023-06-19T11:40:52;5.93;;;4.22;;
44832;SDS011;30569;51.252;9.830;2023-06-19T11:43:26;5.15;;;3.42;;
44832;SDS011;30569;51.252;9.830;2023-06-19T11:46:02;5.75;;;3.70;;
44832;SDS011;30569;51.252;9.830;2023-06-19T11:48:29;5.80;;;3.83;;
44832;SDS011;30569;51.252;9.830;2023-06-19T11:50:54;5.60;;;3.53;;
44832;SDS011;30569;51.252;9.830;2023-06-19T11:53:20;6.90;;;3.60;;
44832;SDS011;30569;51.252;9.830;2023-06-19T11:55:47;5.72;;;3.60;;
44832;SDS011;30569;51.252;9.830;2023-06-19T11:58:13;6.22;;;3.75;;
44832;SDS011;30569;51.252;9.830;2023-06-19T12:00:40;7.15;;;3.65;;
44832;SDS011;30569;51.252;9.830;2023-06-19T12:03:06;6.38;;;3.38;;
44832;SDS011;30569;51.252;9.830;2023-06-19T12:05:32;6.10;;;4.10;;
44832;SDS011;30569;51.252;9.830;2023-06-19T12:07:57;6.78;;;4.15;;
44832;SDS011;30569;51.252;9.830;2023-06-19T12:10:23;6.75;;;4.13;;
44832;SDS011;30569;51.252;9.830;2023-06-19T12:12:48;6.47;;;4.20;;
44832;SDS011;30569;51.252;9.830;2023-06-19T12:15:14;5.32;;;3.70;;
44832;SDS011;30569;51.252;9.830;2023-06-19T12:17:40;6.90;;;4.28;;
44832;SDS011;30569;51.252;9.830;2023-06-19T12:20:06;8.48;;;4.45;;
44832;SDS011;30569;51.252;9.830;2023-06-19T12:22:33;6.47;;;3.83;;
44832;SDS011;30569;51.252;9.830;2023-06-19T12:24:59;6.47;;;4.10;;
44832;SDS011;30569;51.252;9.830;2023-06-19T12:27:25;5.50;;;3.38;;
44832;SDS011;30569;51.252;9.830;2023-06-19T12:29:51;5.85;;;3.90;;
44832;SDS011;30569;51.252;9.830;2023-06-19T12:32:16;5.75;;;3.75;;
44832;SDS011;30569;51.252;9.830;2023-06-19T12:34:42;5.88;;;4.03;;
44832;SDS011;30569;51.252;9.830;2023-06-19T12:37:12;6.97;;;3.65;;
44832;SDS011;30569;51.252;9.830;2023-06-19T12:39:42;5.18;;;3.20;;
44832;SDS011;30569;51.252;9.830;2023-06-19T12:42:09;5.50;;;3.25;;
44832;SDS011;30569;51.252;9.830;2023-06-19T12:44:37;6.88;;;3.67;;
44832;SDS011;30569;51.252;9.830;2023-06-19T12:47:03;7.07;;;3.60;;
44832;SDS011;30569;51.252;9.830;2023-06-19T12:49:30;5.18;;;3.75;;
44832;SDS011;30569;51.252;9.830;2023-06-19T12:51:56;6.78;;;3.60;;
44832;SDS011;30569;51.252;9.830;2023-06-19T12:54:22;6.15;;;3.85;;
44832;SDS011;30569;51.252;9.830;2023-06-19T12:56:48;5.85;;;3.47;;
44832;SDS011;30569;51.252;9.830;2023-06-19T12:59:14;5.85;;;3.60;;
44832;SDS011;30569;51.252;9.830;2023-06-19T13:01:40;9.07;;;3.40;;
44832;SDS011;30569;51.252;9.830;2023-06-19T13:04:06;5.90;;;3.50;;
44832;SDS011;30569;51.252;9.830;2023-06-19T13:06:32;7.15;;;3.40;;
44832;SDS011;30569;51.252;9.830;2023-06-19T13:08:57;4.95;;;3.15;;
44832;SDS011;30569;51.252;9.830;2023-06-19T13:11:23;9.15;;;3.50;;
44832;SDS011;30569;51.252;9.830;2023-06-19T13:13:49;6.18;;;3.03;;
44832;SDS011;30569;51.252;9.830;2023-06-19T13:16:14;7.07;;;3.40;;
44832;SDS011;30569;51.252;9.830;2023-06-19T13:18:43;6.63;;;3.60;;
44832;SDS011;30569;51.252;9.830;2023-06-19T13:21:11;5.75;;;3.83;;
44832;SDS011;30569;51.252;9.830;2023-06-19T13:23:37;6.97;;;4.03;;
44832;SDS011;30569;51.252;9.830;2023-06-19T13:26:03;5.65;;;3.50;;
44832;SDS011;30569;51.252;9.830;2023-06-19T13:28:30;6.25;;;3.45;;
44832;SDS011;30569;51.252;9.830;2023-06-19T13:30:56;5.65;;;3.50;;
44832;SDS011;30569;51.252;9.830;2023-06-19T13:33:22;7.18;;;3.75;;
44832;SDS011;30569;51.252;9.830;2023-06-19T13:35:47;5.38;;;3.60;;
44832;SDS011;30569;51.252;9.830;2023-06-19T13:38:13;9.55;;;3.75;;
44832;SDS011;30569;51.252;9.830;2023-06-19T13:40:40;7.03;;;3.70;;
44832;SDS011;30569;51.252;9.830;2023-06-19T13:43:06;7.57;;;3.75;;
44832;SDS011;30569;51.252;9.830;2023-06-19T13:45:32;5.85;;;3.67;;
44832;SDS011;30569;51.252;9.830;2023-06-19T13:47:59;5.75;;;3.67;;
44832;SDS011;30569;51.252;9.830;2023-06-19T13:50:25;6.32;;;3.97;;
44832;SDS011;30569;51.252;9.830;2023-06-19T13:52:50;10.10;;;4.70;;
44832;SDS011;30569;51.252;9.830;2023-06-19T13:55:16;5.93;;;3.63;;
44832;SDS011;30569;51.252;9.830;2023-06-19T13:57:42;5.82;;;4.10;;
44832;SDS011;30569;51.252;9.830;2023-06-19T14:00:08;6.28;;;4.20;;
44832;SDS011;30569;51.252;9.830;2023-06-19T14:02:36;5.20;;;3.55;;
44832;SDS011;30569;51.252;9.830;2023-06-19T14:05:03;5.95;;;3.85;;
44832;SDS011;30569;51.252;9.830;2023-06-19T14:07:32;7.03;;;3.80;;
44832;SDS011;30569;51.252;9.830;2023-06-19T14:09:59;6.68;;;3.97;;
44832;SDS011;30569;51.252;9.830;2023-06-19T14:12:25;6.05;;;3.70;;
44832;SDS011;30569;51.252;9.830;2023-06-19T14:14:51;6.07;;;3.85;;
44832;SDS011;30569;51.252;9.830;2023-06-19T14:17:17;6.55;;;3.60;;
44832;SDS011;30569;51.252;9.830;2023-06-19T14:19:43;6.90;;;3.60;;
44832;SDS011;30569;51.252;9.830;2023-06-19T14:22:08;7.05;;;3.78;;
44832;SDS011;30569;51.252;9.830;2023-06-19T14:24:34;6.38;;;4.07;;
44832;SDS011;30569;51.252;9.830;2023-06-19T14:27:00;9.40;;;3.85;;
44832;SDS011;30569;51.252;9.830;2023-06-19T14:29:26;6.72;;;3.97;;
44832;SDS011;30569;51.252;9.830;2023-06-19T14:31:51;5.55;;;3.60;;
44832;SDS011;30569;51.252;9.830;2023-06-19T14:34:18;7.43;;;3.70;;
44832;SDS011;30569;51.252;9.830;2023-06-19T14:36:44;6.15;;;3.72;;
44832;SDS011;30569;51.252;9.830;2023-06-19T14:39:10;11.70;;;3.97;;
44832;SDS011;30569;51.252;9.830;2023-06-19T14:41:36;13.65;;;5.03;;
44832;SDS011;30569;51.252;9.830;2023-06-19T14:44:02;7.93;;;3.50;;
44832;SDS011;30569;51.252;9.830;2023-06-19T14:46:29;11.70;;;3.67;;
44832;SDS011;30569;51.252;9.830;2023-06-19T14:48:55;5.30;;;3.47;;
44832;SDS011;30569;51.252;9.830;2023-06-19T14:51:23;6.45;;;3.20;;
44832;SDS011;30569;51.252;9.830;2023-06-19T14:53:50;5.47;;;3.70;;